Cut Bank, MT

11:21 AM MST on December 27, 2014 (GMT -0700)
Cut Bank Municipal | Change Station
CLOSE
Current Station
Airport
Location: Cut Bank,
Elevation: 3855 ft
Nearby Weather Stations
Active Advisory: Winter Weather Advisory

Elev 3855 ft 48.61 °N, 112.38 °W | Updated 25 minutes ago

Overcast
Overcast
28 °F
Feels Like 15 °F
N
21
Wind Variable Wind from West

Today
High -- | Low -- °F
--% Chance of Precip.
Yesterday
High -- | Low -- °F
Precip. -- in
8:21 AM 4:40 PM
Waxing Crescent, 39% visible
Pressure 30.10 in
Visibility 10.0 miles
Clouds Overcast 6500 ft
Windchill 15 °F
Dew Point 18 °F
Humidity 66%
Rainfall 0.00 in
Snow Depth Not available.
UV 0 out of 12
Pollen .10 out of 12
Air Quality Not available.
Flu Activity Not available.
METAR KCTB 271756Z AUTO 26018KT 10SM OVC065 M02/M08 A2993 RMK AO2 SLP191 T10221078 11022 21044 58004

More Conditions Fewer Conditions

Pressure 30.10 in
Visibility 10.0 miles
Clouds Overcast 6500 ft
Windchill 15 °F
Dew Point 18 °F
Humidity 66%
Rainfall 0.00 in
Snow Depth Not available.
UV 0 out of 12
Pollen .10 out of 12
Air Quality Not available.
Flu Activity Not available.
METAR KCTB 271756Z AUTO 26018KT 10SM OVC065 M02/M08 A2993 RMK AO2 SLP191 T10221078 11022 21044 58004

More Conditions Fewer Conditions

10-Day Weather Forecast

Almanac

Astronomy

Dec. 27, 2014 Rise Set
Actual Time
Civil Twilight
Nautical Twilight
Astronomical Twilight
Moon
Length of Visible Light
Length of Day
Tomorrow will be .
, % of the Moon is Illuminated

Today's Extremes

State Highs State Lows

Community

WunderPhotos

Upload Photos

1,780,982 photos uploaded!

WunderBlogs® & News

Nearby

Air Quality

  Air Quality AQ Index Pollutant
Not available.

Snow Depth

Station Depth Elevation

Earthquake Activity

City Distance Mag. Time & Date
Minimum magnitude displayed is 2.5.

Coastal Water Temperatures

Place Temperature

Nearby Weather Stations